sensor_id;sensor_type;location;lat;lon;timestamp;P1;durP1;ratioP1;P2;durP2;ratioP2
28766;SDS011;15921;52.034;20.650;2024-03-06T00:00:06;65.45;;;23.40;;
28766;SDS011;15921;52.034;20.650;2024-03-06T00:02:33;75.53;;;24.42;;
28766;SDS011;15921;52.034;20.650;2024-03-06T00:05:00;85.78;;;24.88;;
28766;SDS011;15921;52.034;20.650;2024-03-06T00:07:25;73.63;;;26.35;;
28766;SDS011;15921;52.034;20.650;2024-03-06T00:09:51;78.47;;;25.27;;
28766;SDS011;15921;52.034;20.650;2024-03-06T00:12:18;107.20;;;26.55;;
28766;SDS011;15921;52.034;20.650;2024-03-06T00:14:44;81.28;;;25.92;;
28766;SDS011;15921;52.034;20.650;2024-03-06T00:17:10;86.28;;;24.98;;
28766;SDS011;15921;52.034;20.650;2024-03-06T00:19:35;69.32;;;25.55;;
28766;SDS011;15921;52.034;20.650;2024-03-06T00:22:01;81.07;;;26.83;;
28766;SDS011;15921;52.034;20.650;2024-03-06T00:24:27;76.07;;;25.83;;
28766;SDS011;15921;52.034;20.650;2024-03-06T00:26:53;71.18;;;25.15;;
28766;SDS011;15921;52.034;20.650;2024-03-06T00:29:19;79.80;;;22.88;;
28766;SDS011;15921;52.034;20.650;2024-03-06T00:31:45;82.93;;;26.33;;
28766;SDS011;15921;52.034;20.650;2024-03-06T00:34:11;67.07;;;24.38;;
28766;SDS011;15921;52.034;20.650;2024-03-06T00:36:42;73.72;;;27.08;;
28766;SDS011;15921;52.034;20.650;2024-03-06T00:39:11;97.93;;;27.17;;
28766;SDS011;15921;52.034;20.650;2024-03-06T00:41:39;76.78;;;25.67;;
28766;SDS011;15921;52.034;20.650;2024-03-06T00:44:06;110.03;;;28.35;;
28766;SDS011;15921;52.034;20.650;2024-03-06T00:46:32;68.47;;;25.52;;
28766;SDS011;15921;52.034;20.650;2024-03-06T00:48:57;106.00;;;27.95;;
28766;SDS011;15921;52.034;20.650;2024-03-06T00:51:23;93.30;;;26.33;;
28766;SDS011;15921;52.034;20.650;2024-03-06T00:53:49;79.68;;;27.23;;
28766;SDS011;15921;52.034;20.650;2024-03-06T00:56:15;101.88;;;28.10;;
28766;SDS011;15921;52.034;20.650;2024-03-06T00:58:40;66.70;;;23.95;;
28766;SDS011;15921;52.034;20.650;2024-03-06T01:01:06;89.18;;;25.48;;
28766;SDS011;15921;52.034;20.650;2024-03-06T01:03:31;70.13;;;24.42;;
28766;SDS011;15921;52.034;20.650;2024-03-06T01:05:57;93.00;;;25.10;;
28766;SDS011;15921;52.034;20.650;2024-03-06T01:08:23;76.75;;;24.63;;
28766;SDS011;15921;52.034;20.650;2024-03-06T01:10:53;101.50;;;24.63;;
28766;SDS011;15921;52.034;20.650;2024-03-06T01:13:19;76.63;;;24.05;;
28766;SDS011;15921;52.034;20.650;2024-03-06T01:15:45;61.83;;;21.60;;
28766;SDS011;15921;52.034;20.650;2024-03-06T01:18:11;66.15;;;23.05;;
28766;SDS011;15921;52.034;20.650;2024-03-06T01:20:37;75.30;;;24.02;;
28766;SDS011;15921;52.034;20.650;2024-03-06T01:23:03;72.38;;;24.35;;
28766;SDS011;15921;52.034;20.650;2024-03-06T01:25:29;91.10;;;26.50;;
28766;SDS011;15921;52.034;20.650;2024-03-06T01:27:55;97.60;;;26.80;;
28766;SDS011;15921;52.034;20.650;2024-03-06T01:30:20;100.57;;;25.45;;
28766;SDS011;15921;52.034;20.650;2024-03-06T01:32:46;68.28;;;23.35;;
28766;SDS011;15921;52.034;20.650;2024-03-06T01:35:12;108.05;;;27.45;;
28766;SDS011;15921;52.034;20.650;2024-03-06T01:37:37;114.88;;;28.33;;
28766;SDS011;15921;52.034;20.650;2024-03-06T01:40:03;89.97;;;28.35;;
28766;SDS011;15921;52.034;20.650;2024-03-06T01:42:30;93.50;;;28.42;;
28766;SDS011;15921;52.034;20.650;2024-03-06T01:44:55;115.68;;;30.13;;
28766;SDS011;15921;52.034;20.650;2024-03-06T01:47:21;100.15;;;27.92;;
28766;SDS011;15921;52.034;20.650;2024-03-06T01:49:47;91.50;;;28.30;;
28766;SDS011;15921;52.034;20.650;2024-03-06T01:52:13;114.65;;;29.17;;
28766;SDS011;15921;52.034;20.650;2024-03-06T01:54:41;89.47;;;28.33;;
28766;SDS011;15921;52.034;20.650;2024-03-06T01:57:07;120.85;;;30.30;;
28766;SDS011;15921;52.034;20.650;2024-03-06T01:59:33;103.65;;;28.73;;
28766;SDS011;15921;52.034;20.650;2024-03-06T02:01:59;148.43;;;32.30;;
28766;SDS011;15921;52.034;20.650;2024-03-06T02:04:29;119.53;;;30.23;;
28766;SDS011;15921;52.034;20.650;2024-03-06T02:06:55;132.18;;;30.63;;
28766;SDS011;15921;52.034;20.650;2024-03-06T02:09:22;126.88;;;30.95;;
28766;SDS011;15921;52.034;20.650;2024-03-06T02:11:48;85.25;;;28.90;;
28766;SDS011;15921;52.034;20.650;2024-03-06T02:14:15;120.07;;;31.63;;
28766;SDS011;15921;52.034;20.650;2024-03-06T02:16:41;108.85;;;29.73;;
28766;SDS011;15921;52.034;20.650;2024-03-06T02:19:07;174.68;;;32.47;;
28766;SDS011;15921;52.034;20.650;2024-03-06T02:21:33;104.03;;;30.95;;
28766;SDS011;15921;52.034;20.650;2024-03-06T02:23:59;80.43;;;29.45;;
28766;SDS011;15921;52.034;20.650;2024-03-06T02:26:25;108.65;;;31.88;;
28766;SDS011;15921;52.034;20.650;2024-03-06T02:28:52;70.13;;;26.67;;
28766;SDS011;15921;52.034;20.650;2024-03-06T02:31:20;89.15;;;29.92;;
28766;SDS011;15921;52.034;20.650;2024-03-06T02:33:47;85.00;;;30.20;;
28766;SDS011;15921;52.034;20.650;2024-03-06T02:36:13;100.45;;;32.08;;
28766;SDS011;15921;52.034;20.650;2024-03-06T02:38:40;105.50;;;31.52;;
28766;SDS011;15921;52.034;20.650;2024-03-06T02:41:05;80.22;;;28.73;;
28766;SDS011;15921;52.034;20.650;2024-03-06T02:43:32;91.28;;;31.02;;
28766;SDS011;15921;52.034;20.650;2024-03-06T02:45:58;122.00;;;32.58;;
28766;SDS011;15921;52.034;20.650;2024-03-06T02:48:24;107.38;;;30.88;;
28766;SDS011;15921;52.034;20.650;2024-03-06T02:50:50;72.90;;;26.95;;
28766;SDS011;15921;52.034;20.650;2024-03-06T02:53:16;83.32;;;29.80;;
28766;SDS011;15921;52.034;20.650;2024-03-06T02:55:42;65.85;;;24.35;;
28766;SDS011;15921;52.034;20.650;2024-03-06T02:58:07;94.65;;;32.53;;
28766;SDS011;15921;52.034;20.650;2024-03-06T03:00:33;76.50;;;30.02;;
28766;SDS011;15921;52.034;20.650;2024-03-06T03:02:59;100.28;;;32.15;;
28766;SDS011;15921;52.034;20.650;2024-03-06T03:05:24;83.88;;;30.90;;
28766;SDS011;15921;52.034;20.650;2024-03-06T03:07:50;129.38;;;32.78;;
28766;SDS011;15921;52.034;20.650;2024-03-06T03:10:16;76.72;;;29.95;;
28766;SDS011;15921;52.034;20.650;2024-03-06T03:12:42;104.50;;;30.77;;
28766;SDS011;15921;52.034;20.650;2024-03-06T03:15:08;122.90;;;32.92;;
28766;SDS011;15921;52.034;20.650;2024-03-06T03:17:34;75.30;;;28.45;;
28766;SDS011;15921;52.034;20.650;2024-03-06T03:20:01;81.75;;;29.85;;
28766;SDS011;15921;52.034;20.650;2024-03-06T03:22:44;76.63;;;31.25;;
28766;SDS011;15921;52.034;20.650;2024-03-06T03:25:10;78.72;;;30.10;;
28766;SDS011;15921;52.034;20.650;2024-03-06T03:27:39;75.75;;;29.67;;
28766;SDS011;15921;52.034;20.650;2024-03-06T03:30:08;73.47;;;28.52;;
28766;SDS011;15921;52.034;20.650;2024-03-06T03:32:35;87.25;;;31.98;;
28766;SDS011;15921;52.034;20.650;2024-03-06T03:35:02;127.75;;;31.90;;
28766;SDS011;15921;52.034;20.650;2024-03-06T03:37:31;82.82;;;27.90;;
28766;SDS011;15921;52.034;20.650;2024-03-06T03:39:57;81.25;;;30.63;;
28766;SDS011;15921;52.034;20.650;2024-03-06T03:42:22;84.35;;;30.83;;
28766;SDS011;15921;52.034;20.650;2024-03-06T03:44:48;88.10;;;31.30;;
28766;SDS011;15921;52.034;20.650;2024-03-06T03:47:14;80.65;;;29.83;;
28766;SDS011;15921;52.034;20.650;2024-03-06T03:49:39;93.38;;;29.77;;
28766;SDS011;15921;52.034;20.650;2024-03-06T03:52:05;86.60;;;30.55;;
28766;SDS011;15921;52.034;20.650;2024-03-06T03:54:31;74.47;;;29.85;;
28766;SDS011;15921;52.034;20.650;2024-03-06T03:56:57;72.07;;;28.63;;
28766;SDS011;15921;52.034;20.650;2024-03-06T03:59:24;77.78;;;30.85;;
28766;SDS011;15921;52.034;20.650;2024-03-06T04:01:51;91.35;;;32.60;;
28766;SDS011;15921;52.034;20.650;2024-03-06T04:04:17;119.80;;;33.95;;
28766;SDS011;15921;52.034;20.650;2024-03-06T04:06:43;85.10;;;30.80;;
28766;SDS011;15921;52.034;20.650;2024-03-06T04:09:08;73.00;;;29.63;;
28766;SDS011;15921;52.034;20.650;2024-03-06T04:11:39;85.60;;;31.55;;
28766;SDS011;15921;52.034;20.650;2024-03-06T04:14:05;83.70;;;33.10;;
28766;SDS011;15921;52.034;20.650;2024-03-06T04:16:34;81.47;;;31.10;;
28766;SDS011;15921;52.034;20.650;2024-03-06T04:19:00;79.95;;;31.70;;
28766;SDS011;15921;52.034;20.650;2024-03-06T04:21:26;78.63;;;32.50;;
28766;SDS011;15921;52.034;20.650;2024-03-06T04:23:52;81.15;;;31.48;;
28766;SDS011;15921;52.034;20.650;2024-03-06T04:26:17;100.70;;;33.90;;
28766;SDS011;15921;52.034;20.650;2024-03-06T04:28:43;91.00;;;33.08;;
28766;SDS011;15921;52.034;20.650;2024-03-06T04:31:09;89.75;;;32.80;;
28766;SDS011;15921;52.034;20.650;2024-03-06T04:33:35;103.68;;;36.72;;
28766;SDS011;15921;52.034;20.650;2024-03-06T04:36:04;112.70;;;37.78;;
28766;SDS011;15921;52.034;20.650;2024-03-06T04:38:33;91.28;;;34.50;;
28766;SDS011;15921;52.034;20.650;2024-03-06T04:40:59;114.70;;;38.45;;
28766;SDS011;15921;52.034;20.650;2024-03-06T04:43:25;98.80;;;36.33;;
28766;SDS011;15921;52.034;20.650;2024-03-06T04:45:50;89.78;;;35.60;;
28766;SDS011;15921;52.034;20.650;2024-03-06T04:48:16;89.50;;;35.90;;
28766;SDS011;15921;52.034;20.650;2024-03-06T04:50:42;111.68;;;39.90;;
28766;SDS011;15921;52.034;20.650;2024-03-06T04:53:08;102.95;;;36.10;;
28766;SDS011;15921;52.034;20.650;2024-03-06T04:55:33;103.63;;;38.72;;
28766;SDS011;15921;52.034;20.650;2024-03-06T04:58:02;93.03;;;34.83;;
28766;SDS011;15921;52.034;20.650;2024-03-06T05:00:28;100.80;;;37.80;;
28766;SDS011;15921;52.034;20.650;2024-03-06T05:02:54;95.22;;;36.20;;
28766;SDS011;15921;52.034;20.650;2024-03-06T05:05:20;92.70;;;37.97;;
28766;SDS011;15921;52.034;20.650;2024-03-06T05:07:47;105.22;;;39.80;;
28766;SDS011;15921;52.034;20.650;2024-03-06T05:10:13;92.00;;;38.30;;
28766;SDS011;15921;52.034;20.650;2024-03-06T05:12:41;85.72;;;37.15;;
28766;SDS011;15921;52.034;20.650;2024-03-06T05:15:07;81.32;;;34.30;;
28766;SDS011;15921;52.034;20.650;2024-03-06T05:17:33;84.35;;;35.75;;
28766;SDS011;15921;52.034;20.650;2024-03-06T05:19:59;92.38;;;35.08;;
28766;SDS011;15921;52.034;20.650;2024-03-06T05:22:25;90.47;;;37.58;;
28766;SDS011;15921;52.034;20.650;2024-03-06T05:24:51;86.35;;;34.70;;
28766;SDS011;15921;52.034;20.650;2024-03-06T05:27:18;90.97;;;35.78;;
28766;SDS011;15921;52.034;20.650;2024-03-06T05:29:44;80.50;;;34.85;;
28766;SDS011;15921;52.034;20.650;2024-03-06T05:32:09;73.00;;;32.83;;
28766;SDS011;15921;52.034;20.650;2024-03-06T05:34:35;84.22;;;35.03;;
28766;SDS011;15921;52.034;20.650;2024-03-06T05:37:01;77.75;;;33.97;;
28766;SDS011;15921;52.034;20.650;2024-03-06T05:39:29;82.38;;;36.28;;
28766;SDS011;15921;52.034;20.650;2024-03-06T05:41:55;79.07;;;33.72;;
28766;SDS011;15921;52.034;20.650;2024-03-06T05:44:25;79.50;;;35.00;;
28766;SDS011;15921;52.034;20.650;2024-03-06T05:46:51;72.95;;;34.80;;
28766;SDS011;15921;52.034;20.650;2024-03-06T05:49:17;79.07;;;35.58;;
28766;SDS011;15921;52.034;20.650;2024-03-06T05:51:43;74.32;;;34.03;;
28766;SDS011;15921;52.034;20.650;2024-03-06T05:54:08;75.07;;;33.63;;
28766;SDS011;15921;52.034;20.650;2024-03-06T05:56:34;70.88;;;33.40;;
28766;SDS011;15921;52.034;20.650;2024-03-06T05:59:00;67.65;;;32.30;;
28766;SDS011;15921;52.034;20.650;2024-03-06T06:01:30;73.65;;;32.35;;
28766;SDS011;15921;52.034;20.650;2024-03-06T06:03:56;70.38;;;31.75;;
28766;SDS011;15921;52.034;20.650;2024-03-06T06:06:22;62.00;;;29.70;;
28766;SDS011;15921;52.034;20.650;2024-03-06T06:08:47;70.25;;;33.88;;
28766;SDS011;15921;52.034;20.650;2024-03-06T06:11:13;73.90;;;33.72;;
28766;SDS011;15921;52.034;20.650;2024-03-06T06:13:39;93.68;;;46.15;;
28766;SDS011;15921;52.034;20.650;2024-03-06T06:16:05;91.75;;;41.63;;
28766;SDS011;15921;52.034;20.650;2024-03-06T06:18:31;73.05;;;35.90;;
28766;SDS011;15921;52.034;20.650;2024-03-06T06:20:57;72.10;;;33.22;;
28766;SDS011;15921;52.034;20.650;2024-03-06T06:23:23;84.07;;;41.08;;
28766;SDS011;15921;52.034;20.650;2024-03-06T06:25:49;77.75;;;37.50;;
28766;SDS011;15921;52.034;20.650;2024-03-06T06:28:15;71.57;;;32.50;;
28766;SDS011;15921;52.034;20.650;2024-03-06T06:30:41;72.18;;;33.10;;
28766;SDS011;15921;52.034;20.650;2024-03-06T06:33:07;74.65;;;34.65;;
28766;SDS011;15921;52.034;20.650;2024-03-06T06:35:33;65.30;;;31.67;;
28766;SDS011;15921;52.034;20.650;2024-03-06T06:38:02;64.90;;;32.08;;
28766;SDS011;15921;52.034;20.650;2024-03-06T06:40:29;65.25;;;31.45;;
28766;SDS011;15921;52.034;20.650;2024-03-06T06:42:55;66.65;;;31.83;;
28766;SDS011;15921;52.034;20.650;2024-03-06T06:45:21;60.08;;;30.45;;
28766;SDS011;15921;52.034;20.650;2024-03-06T06:47:48;63.00;;;30.55;;
28766;SDS011;15921;52.034;20.650;2024-03-06T06:50:14;64.82;;;31.98;;
28766;SDS011;15921;52.034;20.650;2024-03-06T06:52:41;61.20;;;30.38;;
28766;SDS011;15921;52.034;20.650;2024-03-06T06:55:07;75.13;;;32.42;;
28766;SDS011;15921;52.034;20.650;2024-03-06T06:57:36;60.63;;;30.17;;
28766;SDS011;15921;52.034;20.650;2024-03-06T07:00:03;59.72;;;30.60;;
28766;SDS011;15921;52.034;20.650;2024-03-06T07:02:44;61.83;;;30.15;;
28766;SDS011;15921;52.034;20.650;2024-03-06T07:05:10;61.70;;;31.42;;
28766;SDS011;15921;52.034;20.650;2024-03-06T07:07:36;54.45;;;29.05;;
28766;SDS011;15921;52.034;20.650;2024-03-06T07:10:03;61.72;;;29.73;;
28766;SDS011;15921;52.034;20.650;2024-03-06T07:12:32;62.47;;;28.73;;
28766;SDS011;15921;52.034;20.650;2024-03-06T07:14:58;52.72;;;27.60;;
28766;SDS011;15921;52.034;20.650;2024-03-06T07:17:30;61.35;;;28.67;;
28766;SDS011;15921;52.034;20.650;2024-03-06T07:19:56;58.20;;;30.10;;
28766;SDS011;15921;52.034;20.650;2024-03-06T07:22:22;57.70;;;28.77;;
28766;SDS011;15921;52.034;20.650;2024-03-06T07:24:47;59.58;;;29.10;;
28766;SDS011;15921;52.034;20.650;2024-03-06T07:27:13;59.13;;;30.73;;
28766;SDS011;15921;52.034;20.650;2024-03-06T07:29:39;64.07;;;29.30;;
28766;SDS011;15921;52.034;20.650;2024-03-06T07:32:05;61.85;;;30.75;;
28766;SDS011;15921;52.034;20.650;2024-03-06T07:34:31;65.00;;;29.52;;
28766;SDS011;15921;52.034;20.650;2024-03-06T07:36:57;62.03;;;30.23;;
28766;SDS011;15921;52.034;20.650;2024-03-06T07:39:26;60.00;;;29.77;;
28766;SDS011;15921;52.034;20.650;2024-03-06T07:41:52;59.70;;;29.55;;
28766;SDS011;15921;52.034;20.650;2024-03-06T07:44:19;62.70;;;29.70;;
28766;SDS011;15921;52.034;20.650;2024-03-06T07:46:45;62.83;;;30.42;;
28766;SDS011;15921;52.034;20.650;2024-03-06T07:49:11;57.88;;;30.88;;
28766;SDS011;15921;52.034;20.650;2024-03-06T07:51:37;63.38;;;28.38;;
28766;SDS011;15921;52.034;20.650;2024-03-06T07:54:03;59.92;;;29.65;;
28766;SDS011;15921;52.034;20.650;2024-03-06T07:56:31;61.35;;;28.08;;
28766;SDS011;15921;52.034;20.650;2024-03-06T07:58:57;57.67;;;28.02;;
28766;SDS011;15921;52.034;20.650;2024-03-06T08:01:23;54.90;;;27.63;;
28766;SDS011;15921;52.034;20.650;2024-03-06T08:03:48;55.92;;;28.52;;
28766;SDS011;15921;52.034;20.650;2024-03-06T08:06:15;61.38;;;30.10;;
28766;SDS011;15921;52.034;20.650;2024-03-06T08:08:45;53.85;;;27.65;;
28766;SDS011;15921;52.034;20.650;2024-03-06T08:11:11;64.35;;;29.27;;
28766;SDS011;15921;52.034;20.650;2024-03-06T08:13:40;57.15;;;27.70;;
28766;SDS011;15921;52.034;20.650;2024-03-06T08:16:07;56.28;;;28.40;;
28766;SDS011;15921;52.034;20.650;2024-03-06T08:18:33;50.88;;;26.23;;
28766;SDS011;15921;52.034;20.650;2024-03-06T08:21:00;53.33;;;27.35;;
28766;SDS011;15921;52.034;20.650;2024-03-06T08:23:26;53.30;;;25.05;;
28766;SDS011;15921;52.034;20.650;2024-03-06T08:25:52;56.03;;;26.60;;
28766;SDS011;15921;52.034;20.650;2024-03-06T08:28:17;49.90;;;25.52;;
28766;SDS011;15921;52.034;20.650;2024-03-06T08:30:44;53.67;;;27.00;;
28766;SDS011;15921;52.034;20.650;2024-03-06T08:33:10;51.00;;;24.77;;
28766;SDS011;15921;52.034;20.650;2024-03-06T08:35:36;53.20;;;25.35;;
28766;SDS011;15921;52.034;20.650;2024-03-06T08:38:01;47.63;;;24.35;;
28766;SDS011;15921;52.034;20.650;2024-03-06T08:40:27;47.13;;;25.13;;
28766;SDS011;15921;52.034;20.650;2024-03-06T08:42:53;57.75;;;25.92;;
28766;SDS011;15921;52.034;20.650;2024-03-06T08:45:19;50.78;;;25.23;;
28766;SDS011;15921;52.034;20.650;2024-03-06T08:47:46;44.40;;;23.40;;
28766;SDS011;15921;52.034;20.650;2024-03-06T08:50:15;53.03;;;24.23;;
28766;SDS011;15921;52.034;20.650;2024-03-06T08:52:41;47.78;;;24.13;;
28766;SDS011;15921;52.034;20.650;2024-03-06T08:55:07;47.53;;;24.50;;
28766;SDS011;15921;52.034;20.650;2024-03-06T08:57:34;49.50;;;24.50;;
28766;SDS011;15921;52.034;20.650;2024-03-06T09:00:00;48.17;;;23.48;;
28766;SDS011;15921;52.034;20.650;2024-03-06T09:02:27;51.13;;;22.45;;
28766;SDS011;15921;52.034;20.650;2024-03-06T09:04:52;46.88;;;22.20;;
28766;SDS011;15921;52.034;20.650;2024-03-06T09:07:18;49.28;;;22.98;;
28766;SDS011;15921;52.034;20.650;2024-03-06T09:09:45;57.38;;;24.52;;
28766;SDS011;15921;52.034;20.650;2024-03-06T09:12:11;41.33;;;20.80;;
28766;SDS011;15921;52.034;20.650;2024-03-06T09:14:37;51.80;;;22.98;;
28766;SDS011;15921;52.034;20.650;2024-03-06T09:17:04;41.28;;;21.13;;
28766;SDS011;15921;52.034;20.650;2024-03-06T09:19:31;40.78;;;20.77;;
28766;SDS011;15921;52.034;20.650;2024-03-06T09:21:57;38.60;;;19.80;;
28766;SDS011;15921;52.034;20.650;2024-03-06T09:24:24;40.22;;;22.35;;
28766;SDS011;15921;52.034;20.650;2024-03-06T09:26:50;37.55;;;20.55;;
28766;SDS011;15921;52.034;20.650;2024-03-06T09:29:19;39.05;;;20.70;;
28766;SDS011;15921;52.034;20.650;2024-03-06T09:31:46;43.10;;;21.42;;
28766;SDS011;15921;52.034;20.650;2024-03-06T09:34:13;37.38;;;20.00;;
28766;SDS011;15921;52.034;20.650;2024-03-06T09:36:45;36.80;;;19.70;;
28766;SDS011;15921;52.034;20.650;2024-03-06T09:39:12;40.97;;;21.35;;
28766;SDS011;15921;52.034;20.650;2024-03-06T09:42:00;40.78;;;19.25;;
28766;SDS011;15921;52.034;20.650;2024-03-06T09:44:26;45.17;;;20.05;;
28766;SDS011;15921;52.034;20.650;2024-03-06T09:46:52;40.40;;;18.92;;
28766;SDS011;15921;52.034;20.650;2024-03-06T09:49:21;36.63;;;19.42;;
28766;SDS011;15921;52.034;20.650;2024-03-06T09:51:48;40.50;;;19.17;;
28766;SDS011;15921;52.034;20.650;2024-03-06T09:54:18;40.00;;;19.77;;
28766;SDS011;15921;52.034;20.650;2024-03-06T09:56:46;37.85;;;19.55;;
28766;SDS011;15921;52.034;20.650;2024-03-06T09:59:13;43.08;;;19.85;;
28766;SDS011;15921;52.034;20.650;2024-03-06T10:04:21;43.33;;;20.77;;
28766;SDS011;15921;52.034;20.650;2024-03-06T10:06:50;44.33;;;21.00;;
28766;SDS011;15921;52.034;20.650;2024-03-06T10:09:19;49.40;;;22.50;;
28766;SDS011;15921;52.034;20.650;2024-03-06T10:11:46;46.95;;;22.60;;
28766;SDS011;15921;52.034;20.650;2024-03-06T10:14:12;42.28;;;22.17;;
28766;SDS011;15921;52.034;20.650;2024-03-06T10:16:51;41.20;;;21.75;;
28766;SDS011;15921;52.034;20.650;2024-03-06T10:19:18;47.22;;;22.73;;
28766;SDS011;15921;52.034;20.650;2024-03-06T10:21:46;46.10;;;22.13;;
28766;SDS011;15921;52.034;20.650;2024-03-06T10:24:26;43.33;;;21.88;;
28766;SDS011;15921;52.034;20.650;2024-03-06T10:26:54;43.38;;;21.80;;
28766;SDS011;15921;52.034;20.650;2024-03-06T10:29:24;41.95;;;20.83;;
28766;SDS011;15921;52.034;20.650;2024-03-06T10:31:52;47.08;;;22.42;;
28766;SDS011;15921;52.034;20.650;2024-03-06T10:34:20;41.65;;;19.95;;
28766;SDS011;15921;52.034;20.650;2024-03-06T10:36:48;41.33;;;21.55;;
28766;SDS011;15921;52.034;20.650;2024-03-06T10:39:20;43.45;;;21.58;;
28766;SDS011;15921;52.034;20.650;2024-03-06T10:41:49;42.38;;;20.65;;
28766;SDS011;15921;52.034;20.650;2024-03-06T10:44:18;41.65;;;21.73;;
28766;SDS011;15921;52.034;20.650;2024-03-06T10:47:09;45.40;;;22.85;;
28766;SDS011;15921;52.034;20.650;2024-03-06T10:49:35;54.25;;;22.75;;
28766;SDS011;15921;52.034;20.650;2024-03-06T10:52:03;52.08;;;22.10;;
28766;SDS011;15921;52.034;20.650;2024-03-06T10:54:33;45.45;;;22.98;;
28766;SDS011;15921;52.034;20.650;2024-03-06T10:57:00;55.00;;;23.33;;
28766;SDS011;15921;52.034;20.650;2024-03-06T10:59:27;45.85;;;22.10;;
28766;SDS011;15921;52.034;20.650;2024-03-06T11:01:57;42.55;;;20.33;;
28766;SDS011;15921;52.034;20.650;2024-03-06T11:04:27;46.45;;;21.42;;
28766;SDS011;15921;52.034;20.650;2024-03-06T11:06:55;42.70;;;20.58;;
28766;SDS011;15921;52.034;20.650;2024-03-06T11:09:22;42.03;;;20.48;;
28766;SDS011;15921;52.034;20.650;2024-03-06T11:11:49;46.90;;;19.65;;
28766;SDS011;15921;52.034;20.650;2024-03-06T11:14:22;41.88;;;19.05;;
28766;SDS011;15921;52.034;20.650;2024-03-06T11:17:01;34.72;;;17.20;;
28766;SDS011;15921;52.034;20.650;2024-03-06T11:19:29;40.22;;;19.00;;
28766;SDS011;15921;52.034;20.650;2024-03-06T11:22:15;40.03;;;19.58;;
28766;SDS011;15921;52.034;20.650;2024-03-06T11:24:40;45.38;;;20.13;;
28766;SDS011;15921;52.034;20.650;2024-03-06T11:27:07;43.53;;;19.70;;
28766;SDS011;15921;52.034;20.650;2024-03-06T11:35:03;37.75;;;17.23;;
28766;SDS011;15921;52.034;20.650;2024-03-06T11:37:33;34.78;;;17.65;;
28766;SDS011;15921;52.034;20.650;2024-03-06T11:39:59;41.20;;;19.33;;
28766;SDS011;15921;52.034;20.650;2024-03-06T11:42:35;51.38;;;20.80;;
28766;SDS011;15921;52.034;20.650;2024-03-06T11:45:11;41.53;;;19.65;;
28766;SDS011;15921;52.034;20.650;2024-03-06T11:47:55;42.17;;;20.23;;
28766;SDS011;15921;52.034;20.650;2024-03-06T11:50:30;49.97;;;20.40;;
28766;SDS011;15921;52.034;20.650;2024-03-06T11:52:59;45.53;;;20.05;;
28766;SDS011;15921;52.034;20.650;2024-03-06T11:55:25;48.97;;;19.48;;
28766;SDS011;15921;52.034;20.650;2024-03-06T11:57:51;41.85;;;18.48;;
28766;SDS011;15921;52.034;20.650;2024-03-06T12:00:20;39.55;;;17.08;;
28766;SDS011;15921;52.034;20.650;2024-03-06T12:02:49;44.28;;;19.70;;
28766;SDS011;15921;52.034;20.650;2024-03-06T12:05:17;43.08;;;17.77;;
28766;SDS011;15921;52.034;20.650;2024-03-06T12:07:49;45.78;;;19.85;;
28766;SDS011;15921;52.034;20.650;2024-03-06T12:10:18;38.25;;;16.75;;
28766;SDS011;15921;52.034;20.650;2024-03-06T12:12:45;37.13;;;17.77;;
28766;SDS011;15921;52.034;20.650;2024-03-06T12:15:11;34.78;;;17.13;;
28766;SDS011;15921;52.034;20.650;2024-03-06T12:17:46;43.38;;;18.05;;
28766;SDS011;15921;52.034;20.650;2024-03-06T12:20:14;39.97;;;17.65;;
28766;SDS011;15921;52.034;20.650;2024-03-06T12:22:59;39.05;;;17.42;;
28766;SDS011;15921;52.034;20.650;2024-03-06T12:25:25;32.53;;;16.08;;
28766;SDS011;15921;52.034;20.650;2024-03-06T12:27:52;38.70;;;18.05;;
28766;SDS011;15921;52.034;20.650;2024-03-06T12:30:19;36.97;;;17.05;;
28766;SDS011;15921;52.034;20.650;2024-03-06T12:33:00;38.80;;;17.25;;
28766;SDS011;15921;52.034;20.650;2024-03-06T12:35:29;41.95;;;17.33;;
28766;SDS011;15921;52.034;20.650;2024-03-06T12:37:55;34.47;;;15.05;;
28766;SDS011;15921;52.034;20.650;2024-03-06T12:40:22;37.38;;;15.48;;
28766;SDS011;15921;52.034;20.650;2024-03-06T12:42:48;35.80;;;15.20;;
28766;SDS011;15921;52.034;20.650;2024-03-06T12:45:15;33.65;;;14.63;;
28766;SDS011;15921;52.034;20.650;2024-03-06T12:47:47;32.50;;;15.52;;
28766;SDS011;15921;52.034;20.650;2024-03-06T12:50:14;42.92;;;14.93;;
28766;SDS011;15921;52.034;20.650;2024-03-06T12:52:40;32.80;;;14.93;;
28766;SDS011;15921;52.034;20.650;2024-03-06T12:55:06;31.25;;;13.90;;
28766;SDS011;15921;52.034;20.650;2024-03-06T12:57:32;31.48;;;13.15;;
28766;SDS011;15921;52.034;20.650;2024-03-06T12:59:59;26.23;;;13.82;;
28766;SDS011;15921;52.034;20.650;2024-03-06T13:02:25;27.40;;;13.48;;
28766;SDS011;15921;52.034;20.650;2024-03-06T13:04:51;26.92;;;12.75;;
28766;SDS011;15921;52.034;20.650;2024-03-06T13:07:17;30.08;;;13.88;;
28766;SDS011;15921;52.034;20.650;2024-03-06T13:09:44;29.85;;;13.18;;
28766;SDS011;15921;52.034;20.650;2024-03-06T13:12:09;29.92;;;13.32;;
28766;SDS011;15921;52.034;20.650;2024-03-06T13:14:35;25.45;;;12.30;;
28766;SDS011;15921;52.034;20.650;2024-03-06T13:17:01;24.60;;;13.02;;
28766;SDS011;15921;52.034;20.650;2024-03-06T13:19:27;26.92;;;12.70;;
28766;SDS011;15921;52.034;20.650;2024-03-06T13:21:53;25.10;;;12.60;;
28766;SDS011;15921;52.034;20.650;2024-03-06T13:24:19;31.88;;;13.65;;
28766;SDS011;15921;52.034;20.650;2024-03-06T13:26:45;24.40;;;12.73;;
28766;SDS011;15921;52.034;20.650;2024-03-06T13:29:12;22.98;;;12.98;;
28766;SDS011;15921;52.034;20.650;2024-03-06T13:31:38;24.48;;;12.18;;
28766;SDS011;15921;52.034;20.650;2024-03-06T13:34:04;25.92;;;12.73;;
28766;SDS011;15921;52.034;20.650;2024-03-06T13:36:29;24.55;;;12.82;;
28766;SDS011;15921;52.034;20.650;2024-03-06T13:38:56;22.48;;;11.15;;
28766;SDS011;15921;52.034;20.650;2024-03-06T13:41:21;26.88;;;12.43;;
28766;SDS011;15921;52.034;20.650;2024-03-06T13:43:47;24.98;;;12.65;;
28766;SDS011;15921;52.034;20.650;2024-03-06T13:46:13;21.48;;;11.80;;
28766;SDS011;15921;52.034;20.650;2024-03-06T13:48:39;27.17;;;13.15;;
28766;SDS011;15921;52.034;20.650;2024-03-06T13:51:05;22.00;;;10.32;;
28766;SDS011;15921;52.034;20.650;2024-03-06T13:53:31;23.52;;;11.45;;
28766;SDS011;15921;52.034;20.650;2024-03-06T13:55:57;23.10;;;11.00;;
28766;SDS011;15921;52.034;20.650;2024-03-06T13:58:23;22.70;;;12.35;;
28766;SDS011;15921;52.034;20.650;2024-03-06T14:00:48;24.63;;;12.43;;
28766;SDS011;15921;52.034;20.650;2024-03-06T14:03:14;24.20;;;12.30;;
28766;SDS011;15921;52.034;20.650;2024-03-06T14:05:40;31.98;;;15.85;;
28766;SDS011;15921;52.034;20.650;2024-03-06T14:08:06;72.97;;;27.40;;
28766;SDS011;15921;52.034;20.650;2024-03-06T14:10:32;49.60;;;20.95;;
28766;SDS011;15921;52.034;20.650;2024-03-06T14:13:02;39.25;;;16.02;;
28766;SDS011;15921;52.034;20.650;2024-03-06T14:15:28;32.10;;;13.93;;